sensor_id;sensor_type;location;lat;lon;timestamp;P1;durP1;ratioP1;P2;durP2;ratioP2
52668;SDS011;59898;52.786;6.892;2022-09-09T00:00:33;10.98;;;5.88;;
52668;SDS011;59898;52.786;6.892;2022-09-09T00:11:01;10.23;;;5.40;;
52668;SDS011;59898;52.786;6.892;2022-09-09T00:14:43;9.23;;;5.43;;
52668;SDS011;59898;52.786;6.892;2022-09-09T00:18:17;8.18;;;5.03;;
52668;SDS011;59898;52.786;6.892;2022-09-09T00:22:08;6.80;;;5.93;;
52668;SDS011;59898;52.786;6.892;2022-09-09T00:29:27;7.50;;;5.05;;
52668;SDS011;59898;52.786;6.892;2022-09-09T00:33:10;8.18;;;5.15;;
52668;SDS011;59898;52.786;6.892;2022-09-09T00:36:35;9.15;;;5.03;;
52668;SDS011;59898;52.786;6.892;2022-09-09T00:39:58;9.87;;;6.07;;
52668;SDS011;59898;52.786;6.892;2022-09-09T00:43:25;9.07;;;5.53;;
52668;SDS011;59898;52.786;6.892;2022-09-09T00:50:52;10.93;;;5.53;;
52668;SDS011;59898;52.786;6.892;2022-09-09T00:54:28;14.20;;;5.55;;
52668;SDS011;59898;52.786;6.892;2022-09-09T00:57:50;10.52;;;5.32;;
52668;SDS011;59898;52.786;6.892;2022-09-09T01:01:12;7.30;;;5.15;;
52668;SDS011;59898;52.786;6.892;2022-09-09T01:04:34;7.32;;;5.40;;
52668;SDS011;59898;52.786;6.892;2022-09-09T01:07:57;7.63;;;4.65;;
52668;SDS011;59898;52.786;6.892;2022-09-09T01:11:21;8.95;;;5.60;;
52668;SDS011;59898;52.786;6.892;2022-09-09T01:14:50;7.85;;;5.43;;
52668;SDS011;59898;52.786;6.892;2022-09-09T01:18:15;10.48;;;4.93;;
52668;SDS011;59898;52.786;6.892;2022-09-09T01:21:50;6.22;;;4.50;;
52668;SDS011;59898;52.786;6.892;2022-09-09T01:25:28;7.20;;;5.00;;
52668;SDS011;59898;52.786;6.892;2022-09-09T01:28:50;7.07;;;4.88;;
52668;SDS011;59898;52.786;6.892;2022-09-09T01:39:40;8.85;;;4.75;;
52668;SDS011;59898;52.786;6.892;2022-09-09T01:43:04;5.82;;;4.88;;
52668;SDS011;59898;52.786;6.892;2022-09-09T01:46:26;6.43;;;5.28;;
52668;SDS011;59898;52.786;6.892;2022-09-09T01:49:48;12.83;;;6.47;;
52668;SDS011;59898;52.786;6.892;2022-09-09T01:53:09;10.48;;;5.60;;
52668;SDS011;59898;52.786;6.892;2022-09-09T01:56:36;9.45;;;5.72;;
52668;SDS011;59898;52.786;6.892;2022-09-09T02:00:10;10.68;;;7.03;;
52668;SDS011;59898;52.786;6.892;2022-09-09T02:03:32;9.15;;;5.75;;
52668;SDS011;59898;52.786;6.892;2022-09-09T02:06:55;11.75;;;6.45;;
52668;SDS011;59898;52.786;6.892;2022-09-09T02:10:20;8.68;;;5.95;;
52668;SDS011;59898;52.786;6.892;2022-09-09T02:13:41;11.27;;;6.45;;
52668;SDS011;59898;52.786;6.892;2022-09-09T02:17:07;8.90;;;6.18;;
52668;SDS011;59898;52.786;6.892;2022-09-09T02:20:30;10.63;;;6.82;;
52668;SDS011;59898;52.786;6.892;2022-09-09T02:23:53;8.70;;;6.28;;
52668;SDS011;59898;52.786;6.892;2022-09-09T02:27:16;9.40;;;6.07;;
52668;SDS011;59898;52.786;6.892;2022-09-09T02:30:39;11.00;;;6.63;;
52668;SDS011;59898;52.786;6.892;2022-09-09T02:34:01;11.00;;;6.28;;
52668;SDS011;59898;52.786;6.892;2022-09-09T02:37:27;7.20;;;6.13;;
52668;SDS011;59898;52.786;6.892;2022-09-09T02:40:53;15.02;;;6.80;;
52668;SDS011;59898;52.786;6.892;2022-09-09T02:44:15;11.65;;;6.32;;
52668;SDS011;59898;52.786;6.892;2022-09-09T02:47:38;8.77;;;6.50;;
52668;SDS011;59898;52.786;6.892;2022-09-09T02:51:24;11.32;;;6.53;;
52668;SDS011;59898;52.786;6.892;2022-09-09T02:54:59;10.77;;;6.88;;
52668;SDS011;59898;52.786;6.892;2022-09-09T02:58:28;10.30;;;7.50;;
52668;SDS011;59898;52.786;6.892;2022-09-09T03:01:49;9.13;;;7.43;;
52668;SDS011;59898;52.786;6.892;2022-09-09T03:05:09;7.57;;;6.82;;
52668;SDS011;59898;52.786;6.892;2022-09-09T03:08:30;6.65;;;5.97;;
52668;SDS011;59898;52.786;6.892;2022-09-09T03:11:51;7.70;;;6.15;;
52668;SDS011;59898;52.786;6.892;2022-09-09T03:15:12;7.90;;;6.00;;
52668;SDS011;59898;52.786;6.892;2022-09-09T03:18:33;6.72;;;5.07;;
52668;SDS011;59898;52.786;6.892;2022-09-09T03:21:54;9.75;;;5.05;;
52668;SDS011;59898;52.786;6.892;2022-09-09T03:25:15;4.80;;;3.95;;
52668;SDS011;59898;52.786;6.892;2022-09-09T03:28:35;6.03;;;3.45;;
52668;SDS011;59898;52.786;6.892;2022-09-09T03:31:56;3.88;;;2.42;;
52668;SDS011;59898;52.786;6.892;2022-09-09T03:35:17;3.05;;;2.20;;
52668;SDS011;59898;52.786;6.892;2022-09-09T03:38:38;3.60;;;1.90;;
52668;SDS011;59898;52.786;6.892;2022-09-09T03:41:58;3.80;;;1.95;;
52668;SDS011;59898;52.786;6.892;2022-09-09T03:45:19;4.70;;;2.83;;
52668;SDS011;59898;52.786;6.892;2022-09-09T03:48:40;6.55;;;3.35;;
52668;SDS011;59898;52.786;6.892;2022-09-09T03:52:00;5.85;;;3.55;;
52668;SDS011;59898;52.786;6.892;2022-09-09T03:55:21;5.82;;;4.63;;
52668;SDS011;59898;52.786;6.892;2022-09-09T03:58:42;6.95;;;5.05;;
52668;SDS011;59898;52.786;6.892;2022-09-09T04:02:03;9.63;;;5.82;;
52668;SDS011;59898;52.786;6.892;2022-09-09T04:05:24;9.07;;;6.47;;
52668;SDS011;59898;52.786;6.892;2022-09-09T04:08:45;12.82;;;8.23;;
52668;SDS011;59898;52.786;6.892;2022-09-09T04:12:08;9.15;;;7.15;;
52668;SDS011;59898;52.786;6.892;2022-09-09T04:15:33;14.30;;;8.48;;
52668;SDS011;59898;52.786;6.892;2022-09-09T04:18:54;14.63;;;8.85;;
52668;SDS011;59898;52.786;6.892;2022-09-09T04:22:16;12.65;;;8.68;;
52668;SDS011;59898;52.786;6.892;2022-09-09T04:25:36;9.32;;;7.53;;
52668;SDS011;59898;52.786;6.892;2022-09-09T04:28:58;12.45;;;8.65;;
52668;SDS011;59898;52.786;6.892;2022-09-09T04:32:18;10.55;;;8.48;;
52668;SDS011;59898;52.786;6.892;2022-09-09T04:35:39;10.98;;;8.27;;
52668;SDS011;59898;52.786;6.892;2022-09-09T04:39:07;10.77;;;8.20;;
52668;SDS011;59898;52.786;6.892;2022-09-09T04:42:28;13.25;;;9.57;;
52668;SDS011;59898;52.786;6.892;2022-09-09T04:45:50;10.88;;;7.78;;
52668;SDS011;59898;52.786;6.892;2022-09-09T04:49:11;8.90;;;7.20;;
52668;SDS011;59898;52.786;6.892;2022-09-09T04:52:33;9.57;;;7.85;;
52668;SDS011;59898;52.786;6.892;2022-09-09T04:59:26;10.00;;;7.45;;
52668;SDS011;59898;52.786;6.892;2022-09-09T05:02:47;11.13;;;8.18;;
52668;SDS011;59898;52.786;6.892;2022-09-09T05:06:09;12.10;;;7.55;;
52668;SDS011;59898;52.786;6.892;2022-09-09T05:09:31;18.98;;;7.57;;
52668;SDS011;59898;52.786;6.892;2022-09-09T05:12:52;10.15;;;7.53;;
52668;SDS011;59898;52.786;6.892;2022-09-09T05:16:14;8.93;;;7.93;;
52668;SDS011;59898;52.786;6.892;2022-09-09T05:19:35;9.80;;;8.05;;
52668;SDS011;59898;52.786;6.892;2022-09-09T05:22:56;11.07;;;7.07;;
52668;SDS011;59898;52.786;6.892;2022-09-09T05:26:18;9.75;;;6.55;;
52668;SDS011;59898;52.786;6.892;2022-09-09T05:29:40;19.70;;;7.93;;
52668;SDS011;59898;52.786;6.892;2022-09-09T05:36:24;10.98;;;7.15;;
52668;SDS011;59898;52.786;6.892;2022-09-09T05:39:44;11.85;;;7.47;;
52668;SDS011;59898;52.786;6.892;2022-09-09T05:43:05;10.60;;;7.15;;
52668;SDS011;59898;52.786;6.892;2022-09-09T05:46:26;9.70;;;6.85;;
52668;SDS011;59898;52.786;6.892;2022-09-09T05:49:46;10.15;;;7.30;;
52668;SDS011;59898;52.786;6.892;2022-09-09T05:53:07;9.88;;;7.65;;
52668;SDS011;59898;52.786;6.892;2022-09-09T05:56:28;10.73;;;7.63;;
52668;SDS011;59898;52.786;6.892;2022-09-09T05:59:50;9.25;;;7.35;;
52668;SDS011;59898;52.786;6.892;2022-09-09T06:03:11;9.02;;;6.50;;
52668;SDS011;59898;52.786;6.892;2022-09-09T06:06:36;8.00;;;6.40;;
52668;SDS011;59898;52.786;6.892;2022-09-09T06:09:59;12.60;;;7.35;;
52668;SDS011;59898;52.786;6.892;2022-09-09T06:13:20;8.88;;;6.88;;
52668;SDS011;59898;52.786;6.892;2022-09-09T06:16:40;11.30;;;6.03;;
52668;SDS011;59898;52.786;6.892;2022-09-09T06:20:04;9.43;;;6.20;;
52668;SDS011;59898;52.786;6.892;2022-09-09T06:23:25;9.95;;;6.18;;
52668;SDS011;59898;52.786;6.892;2022-09-09T06:26:46;9.13;;;7.43;;
52668;SDS011;59898;52.786;6.892;2022-09-09T06:30:07;9.95;;;7.05;;
52668;SDS011;59898;52.786;6.892;2022-09-09T06:33:39;9.80;;;5.90;;
52668;SDS011;59898;52.786;6.892;2022-09-09T06:37:01;8.38;;;5.53;;
52668;SDS011;59898;52.786;6.892;2022-09-09T06:40:21;9.50;;;7.13;;
52668;SDS011;59898;52.786;6.892;2022-09-09T06:43:42;10.32;;;6.82;;
52668;SDS011;59898;52.786;6.892;2022-09-09T06:47:03;9.85;;;6.65;;
52668;SDS011;59898;52.786;6.892;2022-09-09T06:50:24;11.18;;;8.02;;
52668;SDS011;59898;52.786;6.892;2022-09-09T06:53:45;11.50;;;7.68;;
52668;SDS011;59898;52.786;6.892;2022-09-09T06:57:06;8.50;;;7.60;;
52668;SDS011;59898;52.786;6.892;2022-09-09T07:00:27;10.38;;;7.40;;
52668;SDS011;59898;52.786;6.892;2022-09-09T07:03:51;11.05;;;7.10;;
52668;SDS011;59898;52.786;6.892;2022-09-09T07:07:13;9.27;;;6.63;;
52668;SDS011;59898;52.786;6.892;2022-09-09T07:10:35;10.93;;;6.80;;
52668;SDS011;59898;52.786;6.892;2022-09-09T07:13:59;15.05;;;7.95;;
52668;SDS011;59898;52.786;6.892;2022-09-09T07:17:21;8.00;;;6.78;;
52668;SDS011;59898;52.786;6.892;2022-09-09T07:20:41;9.75;;;6.18;;
52668;SDS011;59898;52.786;6.892;2022-09-09T07:24:02;12.57;;;6.80;;
52668;SDS011;59898;52.786;6.892;2022-09-09T07:27:25;11.32;;;7.32;;
52668;SDS011;59898;52.786;6.892;2022-09-09T07:34:36;7.88;;;6.30;;
52668;SDS011;59898;52.786;6.892;2022-09-09T07:37:57;9.27;;;7.10;;
52668;SDS011;59898;52.786;6.892;2022-09-09T07:41:19;9.02;;;6.10;;
52668;SDS011;59898;52.786;6.892;2022-09-09T07:44:43;9.88;;;6.43;;
52668;SDS011;59898;52.786;6.892;2022-09-09T07:48:03;8.90;;;6.20;;
52668;SDS011;59898;52.786;6.892;2022-09-09T07:51:26;8.48;;;6.18;;
52668;SDS011;59898;52.786;6.892;2022-09-09T07:54:48;8.02;;;6.68;;
52668;SDS011;59898;52.786;6.892;2022-09-09T07:58:09;9.93;;;6.90;;
52668;SDS011;59898;52.786;6.892;2022-09-09T08:01:31;6.05;;;4.75;;
52668;SDS011;59898;52.786;6.892;2022-09-09T08:04:54;9.68;;;6.25;;
52668;SDS011;59898;52.786;6.892;2022-09-09T08:08:15;9.10;;;6.28;;
52668;SDS011;59898;52.786;6.892;2022-09-09T08:11:36;6.93;;;5.50;;
52668;SDS011;59898;52.786;6.892;2022-09-09T08:14:59;8.23;;;5.78;;
52668;SDS011;59898;52.786;6.892;2022-09-09T08:18:20;8.55;;;6.10;;
52668;SDS011;59898;52.786;6.892;2022-09-09T08:21:42;7.78;;;6.03;;
52668;SDS011;59898;52.786;6.892;2022-09-09T08:25:04;8.07;;;6.80;;
52668;SDS011;59898;52.786;6.892;2022-09-09T08:28:26;9.20;;;6.30;;
52668;SDS011;59898;52.786;6.892;2022-09-09T08:31:50;9.35;;;5.55;;
52668;SDS011;59898;52.786;6.892;2022-09-09T08:35:14;9.32;;;5.97;;
52668;SDS011;59898;52.786;6.892;2022-09-09T08:38:35;8.65;;;5.43;;
52668;SDS011;59898;52.786;6.892;2022-09-09T08:45:33;14.70;;;4.60;;
52668;SDS011;59898;52.786;6.892;2022-09-09T08:56:37;10.57;;;5.35;;
52668;SDS011;59898;52.786;6.892;2022-09-09T08:59:58;10.85;;;5.65;;
52668;SDS011;59898;52.786;6.892;2022-09-09T09:03:24;8.10;;;5.30;;
52668;SDS011;59898;52.786;6.892;2022-09-09T09:10:39;11.25;;;5.47;;
52668;SDS011;59898;52.786;6.892;2022-09-09T09:17:37;10.88;;;4.05;;
52668;SDS011;59898;52.786;6.892;2022-09-09T09:31:13;7.82;;;3.90;;
52668;SDS011;59898;52.786;6.892;2022-09-09T09:34:33;7.60;;;3.80;;
52668;SDS011;59898;52.786;6.892;2022-09-09T09:37:54;8.38;;;3.60;;
52668;SDS011;59898;52.786;6.892;2022-09-09T09:41:15;9.23;;;3.78;;
52668;SDS011;59898;52.786;6.892;2022-09-09T09:44:38;10.45;;;3.95;;
52668;SDS011;59898;52.786;6.892;2022-09-09T09:48:03;8.98;;;4.28;;
52668;SDS011;59898;52.786;6.892;2022-09-09T09:51:25;9.15;;;3.40;;
52668;SDS011;59898;52.786;6.892;2022-09-09T09:54:48;7.03;;;3.25;;
52668;SDS011;59898;52.786;6.892;2022-09-09T09:58:13;8.23;;;3.10;;
52668;SDS011;59898;52.786;6.892;2022-09-09T10:01:35;9.88;;;3.45;;
52668;SDS011;59898;52.786;6.892;2022-09-09T10:05:15;10.55;;;3.85;;
52668;SDS011;59898;52.786;6.892;2022-09-09T10:08:46;6.82;;;3.30;;
52668;SDS011;59898;52.786;6.892;2022-09-09T10:19:13;7.15;;;2.90;;
52668;SDS011;59898;52.786;6.892;2022-09-09T10:22:36;7.38;;;3.33;;
52668;SDS011;59898;52.786;6.892;2022-09-09T10:30:10;7.13;;;3.17;;
52668;SDS011;59898;52.786;6.892;2022-09-09T10:45:47;7.15;;;3.22;;
52668;SDS011;59898;52.786;6.892;2022-09-09T10:56:53;7.43;;;3.13;;
52668;SDS011;59898;52.786;6.892;2022-09-09T11:00:36;8.77;;;2.75;;
52668;SDS011;59898;52.786;6.892;2022-09-09T11:04:05;5.03;;;2.53;;
52668;SDS011;59898;52.786;6.892;2022-09-09T11:07:44;6.50;;;2.47;;
52668;SDS011;59898;52.786;6.892;2022-09-09T11:11:21;4.00;;;2.22;;
52668;SDS011;59898;52.786;6.892;2022-09-09T11:14:50;7.57;;;2.70;;
52668;SDS011;59898;52.786;6.892;2022-09-09T11:18:23;4.18;;;2.40;;
52668;SDS011;59898;52.786;6.892;2022-09-09T11:21:45;3.78;;;2.50;;
52668;SDS011;59898;52.786;6.892;2022-09-09T11:25:10;4.95;;;2.50;;
52668;SDS011;59898;52.786;6.892;2022-09-09T11:28:58;10.55;;;3.00;;
52668;SDS011;59898;52.786;6.892;2022-09-09T11:36:22;7.60;;;2.70;;
52668;SDS011;59898;52.786;6.892;2022-09-09T11:40:09;7.07;;;3.28;;
52668;SDS011;59898;52.786;6.892;2022-09-09T11:43:39;5.05;;;2.45;;
52668;SDS011;59898;52.786;6.892;2022-09-09T11:47:15;4.18;;;2.60;;
52668;SDS011;59898;52.786;6.892;2022-09-09T11:50:57;8.32;;;2.67;;
52668;SDS011;59898;52.786;6.892;2022-09-09T11:58:04;3.90;;;2.60;;
52668;SDS011;59898;52.786;6.892;2022-09-09T12:01:39;7.15;;;2.63;;
52668;SDS011;59898;52.786;6.892;2022-09-09T12:05:06;4.57;;;2.90;;
52668;SDS011;59898;52.786;6.892;2022-09-09T12:08:29;7.47;;;3.13;;
52668;SDS011;59898;52.786;6.892;2022-09-09T12:11:50;6.75;;;2.80;;
52668;SDS011;59898;52.786;6.892;2022-09-09T12:18:36;5.55;;;2.50;;
52668;SDS011;59898;52.786;6.892;2022-09-09T12:29:39;5.22;;;2.15;;
52668;SDS011;59898;52.786;6.892;2022-09-09T12:33:11;5.18;;;2.13;;
52668;SDS011;59898;52.786;6.892;2022-09-09T12:36:33;4.60;;;2.30;;
52668;SDS011;59898;52.786;6.892;2022-09-09T12:39:55;5.88;;;2.42;;
52668;SDS011;59898;52.786;6.892;2022-09-09T12:43:17;4.47;;;2.50;;
52668;SDS011;59898;52.786;6.892;2022-09-09T12:46:40;4.22;;;2.78;;
52668;SDS011;59898;52.786;6.892;2022-09-09T12:50:03;5.55;;;2.40;;
52668;SDS011;59898;52.786;6.892;2022-09-09T12:53:25;6.45;;;2.50;;
52668;SDS011;59898;52.786;6.892;2022-09-09T12:56:47;7.07;;;3.28;;
52668;SDS011;59898;52.786;6.892;2022-09-09T13:00:16;6.20;;;2.50;;
52668;SDS011;59898;52.786;6.892;2022-09-09T13:03:43;9.27;;;3.00;;
52668;SDS011;59898;52.786;6.892;2022-09-09T13:07:06;7.43;;;2.60;;
52668;SDS011;59898;52.786;6.892;2022-09-09T13:10:32;5.63;;;2.10;;
52668;SDS011;59898;52.786;6.892;2022-09-09T13:13:58;5.07;;;2.00;;
52668;SDS011;59898;52.786;6.892;2022-09-09T13:17:26;3.55;;;2.60;;
52668;SDS011;59898;52.786;6.892;2022-09-09T13:20:49;7.47;;;3.00;;
52668;SDS011;59898;52.786;6.892;2022-09-09T13:27:56;8.02;;;3.75;;
52668;SDS011;59898;52.786;6.892;2022-09-09T13:31:33;4.97;;;2.60;;
52668;SDS011;59898;52.786;6.892;2022-09-09T13:34:59;9.18;;;3.28;;
52668;SDS011;59898;52.786;6.892;2022-09-09T13:38:24;5.97;;;3.38;;
52668;SDS011;59898;52.786;6.892;2022-09-09T13:41:45;5.72;;;3.38;;
52668;SDS011;59898;52.786;6.892;2022-09-09T13:45:15;6.40;;;2.92;;
52668;SDS011;59898;52.786;6.892;2022-09-09T13:48:40;8.13;;;2.85;;
52668;SDS011;59898;52.786;6.892;2022-09-09T13:52:05;6.78;;;2.70;;
52668;SDS011;59898;52.786;6.892;2022-09-09T13:55:31;6.15;;;2.42;;
52668;SDS011;59898;52.786;6.892;2022-09-09T13:58:52;7.20;;;2.50;;
52668;SDS011;59898;52.786;6.892;2022-09-09T14:02:14;6.72;;;2.38;;
52668;SDS011;59898;52.786;6.892;2022-09-09T14:05:36;3.88;;;2.13;;
52668;SDS011;59898;52.786;6.892;2022-09-09T14:08:58;4.18;;;2.00;;
52668;SDS011;59898;52.786;6.892;2022-09-09T14:12:19;7.97;;;2.25;;
52668;SDS011;59898;52.786;6.892;2022-09-09T14:15:40;6.40;;;2.05;;
52668;SDS011;59898;52.786;6.892;2022-09-09T14:19:00;3.45;;;1.92;;
52668;SDS011;59898;52.786;6.892;2022-09-09T14:22:22;5.95;;;1.92;;
52668;SDS011;59898;52.786;6.892;2022-09-09T14:25:43;1.95;;;1.40;;
52668;SDS011;59898;52.786;6.892;2022-09-09T14:29:03;1.50;;;1.40;;
52668;SDS011;59898;52.786;6.892;2022-09-09T14:32:24;2.00;;;1.58;;
52668;SDS011;59898;52.786;6.892;2022-09-09T14:35:45;2.55;;;1.67;;
52668;SDS011;59898;52.786;6.892;2022-09-09T14:39:06;4.32;;;2.10;;
52668;SDS011;59898;52.786;6.892;2022-09-09T14:42:27;3.17;;;1.85;;
52668;SDS011;59898;52.786;6.892;2022-09-09T14:45:49;4.90;;;1.92;;
52668;SDS011;59898;52.786;6.892;2022-09-09T14:49:11;3.83;;;2.10;;
52668;SDS011;59898;52.786;6.892;2022-09-09T14:52:32;5.47;;;2.25;;
52668;SDS011;59898;52.786;6.892;2022-09-09T14:55:58;4.57;;;2.13;;
52668;SDS011;59898;52.786;6.892;2022-09-09T14:59:27;10.80;;;2.72;;
52668;SDS011;59898;52.786;6.892;2022-09-09T15:02:47;5.22;;;2.47;;
52668;SDS011;59898;52.786;6.892;2022-09-09T15:06:12;6.60;;;2.28;;
52668;SDS011;59898;52.786;6.892;2022-09-09T15:09:34;5.17;;;2.30;;
52668;SDS011;59898;52.786;6.892;2022-09-09T15:12:54;4.78;;;2.17;;
52668;SDS011;59898;52.786;6.892;2022-09-09T15:16:17;4.60;;;2.10;;
52668;SDS011;59898;52.786;6.892;2022-09-09T15:19:38;3.70;;;2.10;;
52668;SDS011;59898;52.786;6.892;2022-09-09T15:22:59;3.50;;;2.28;;
52668;SDS011;59898;52.786;6.892;2022-09-09T15:26:20;2.53;;;2.20;;
52668;SDS011;59898;52.786;6.892;2022-09-09T15:29:41;4.82;;;2.28;;
52668;SDS011;59898;52.786;6.892;2022-09-09T15:33:05;5.13;;;2.25;;
52668;SDS011;59898;52.786;6.892;2022-09-09T15:39:49;2.92;;;2.40;;
52668;SDS011;59898;52.786;6.892;2022-09-09T15:43:10;3.92;;;2.17;;
52668;SDS011;59898;52.786;6.892;2022-09-09T15:46:32;6.63;;;3.20;;
52668;SDS011;59898;52.786;6.892;2022-09-09T15:49:57;3.67;;;2.30;;
52668;SDS011;59898;52.786;6.892;2022-09-09T15:53:19;5.20;;;2.53;;
52668;SDS011;59898;52.786;6.892;2022-09-09T15:56:40;3.45;;;2.60;;
52668;SDS011;59898;52.786;6.892;2022-09-09T16:00:01;4.60;;;2.45;;
52668;SDS011;59898;52.786;6.892;2022-09-09T16:03:26;3.58;;;2.00;;
52668;SDS011;59898;52.786;6.892;2022-09-09T16:06:47;4.72;;;2.28;;
52668;SDS011;59898;52.786;6.892;2022-09-09T16:10:08;6.35;;;2.50;;
52668;SDS011;59898;52.786;6.892;2022-09-09T16:13:32;7.68;;;2.90;;
52668;SDS011;59898;52.786;6.892;2022-09-09T16:16:53;3.95;;;2.72;;
52668;SDS011;59898;52.786;6.892;2022-09-09T16:20:14;3.88;;;2.55;;
52668;SDS011;59898;52.786;6.892;2022-09-09T16:23:35;5.22;;;2.50;;
52668;SDS011;59898;52.786;6.892;2022-09-09T16:26:55;6.30;;;2.92;;
52668;SDS011;59898;52.786;6.892;2022-09-09T16:30:16;5.85;;;2.67;;
52668;SDS011;59898;52.786;6.892;2022-09-09T16:33:37;4.70;;;2.75;;
52668;SDS011;59898;52.786;6.892;2022-09-09T16:36:57;5.32;;;2.97;;
52668;SDS011;59898;52.786;6.892;2022-09-09T16:40:18;5.85;;;2.40;;
52668;SDS011;59898;52.786;6.892;2022-09-09T16:43:39;5.30;;;2.55;;
52668;SDS011;59898;52.786;6.892;2022-09-09T16:47:01;5.47;;;2.60;;
52668;SDS011;59898;52.786;6.892;2022-09-09T16:50:21;7.90;;;3.70;;
52668;SDS011;59898;52.786;6.892;2022-09-09T16:53:42;5.55;;;2.45;;
52668;SDS011;59898;52.786;6.892;2022-09-09T16:57:03;4.80;;;2.90;;
52668;SDS011;59898;52.786;6.892;2022-09-09T17:00:24;5.32;;;3.03;;
52668;SDS011;59898;52.786;6.892;2022-09-09T17:03:47;2.47;;;1.92;;
52668;SDS011;59898;52.786;6.892;2022-09-09T17:07:07;4.32;;;2.17;;
52668;SDS011;59898;52.786;6.892;2022-09-09T17:10:28;3.88;;;2.72;;
52668;SDS011;59898;52.786;6.892;2022-09-09T17:13:49;5.70;;;2.20;;
52668;SDS011;59898;52.786;6.892;2022-09-09T17:17:10;3.70;;;2.35;;
52668;SDS011;59898;52.786;6.892;2022-09-09T17:20:34;3.65;;;2.05;;
52668;SDS011;59898;52.786;6.892;2022-09-09T17:23:56;5.72;;;3.25;;
52668;SDS011;59898;52.786;6.892;2022-09-09T17:27:17;5.25;;;3.25;;
52668;SDS011;59898;52.786;6.892;2022-09-09T17:30:38;4.35;;;2.60;;
52668;SDS011;59898;52.786;6.892;2022-09-09T17:33:59;5.57;;;2.88;;
52668;SDS011;59898;52.786;6.892;2022-09-09T17:37:20;5.10;;;2.60;;
52668;SDS011;59898;52.786;6.892;2022-09-09T17:40:40;3.28;;;2.53;;
52668;SDS011;59898;52.786;6.892;2022-09-09T17:44:03;4.50;;;2.83;;
52668;SDS011;59898;52.786;6.892;2022-09-09T17:47:24;7.93;;;3.25;;
52668;SDS011;59898;52.786;6.892;2022-09-09T17:50:45;6.28;;;2.83;;
52668;SDS011;59898;52.786;6.892;2022-09-09T17:54:11;4.57;;;3.10;;
52668;SDS011;59898;52.786;6.892;2022-09-09T17:57:33;4.65;;;3.08;;
52668;SDS011;59898;52.786;6.892;2022-09-09T18:00:55;5.70;;;3.65;;
52668;SDS011;59898;52.786;6.892;2022-09-09T18:04:16;6.95;;;3.83;;
52668;SDS011;59898;52.786;6.892;2022-09-09T18:07:37;7.13;;;4.28;;
52668;SDS011;59898;52.786;6.892;2022-09-09T18:10:58;6.30;;;3.50;;
52668;SDS011;59898;52.786;6.892;2022-09-09T18:14:21;9.38;;;3.65;;
52668;SDS011;59898;52.786;6.892;2022-09-09T18:17:44;5.88;;;3.60;;
52668;SDS011;59898;52.786;6.892;2022-09-09T18:21:06;6.45;;;3.55;;
52668;SDS011;59898;52.786;6.892;2022-09-09T18:24:27;6.82;;;3.33;;
52668;SDS011;59898;52.786;6.892;2022-09-09T18:27:48;8.63;;;3.78;;
52668;SDS011;59898;52.786;6.892;2022-09-09T18:31:11;9.32;;;4.55;;
52668;SDS011;59898;52.786;6.892;2022-09-09T18:34:34;5.43;;;3.70;;
52668;SDS011;59898;52.786;6.892;2022-09-09T18:37:55;6.78;;;3.88;;
52668;SDS011;59898;52.786;6.892;2022-09-09T18:41:20;11.95;;;5.03;;
52668;SDS011;59898;52.786;6.892;2022-09-09T18:44:43;8.52;;;4.65;;
52668;SDS011;59898;52.786;6.892;2022-09-09T18:48:04;7.28;;;4.43;;
52668;SDS011;59898;52.786;6.892;2022-09-09T18:51:25;10.10;;;4.75;;
52668;SDS011;59898;52.786;6.892;2022-09-09T18:54:48;11.30;;;5.35;;
52668;SDS011;59898;52.786;6.892;2022-09-09T18:58:09;10.88;;;5.53;;
52668;SDS011;59898;52.786;6.892;2022-09-09T19:01:33;9.23;;;5.03;;
52668;SDS011;59898;52.786;6.892;2022-09-09T19:04:57;9.00;;;4.70;;
52668;SDS011;59898;52.786;6.892;2022-09-09T19:08:18;6.72;;;4.88;;
52668;SDS011;59898;52.786;6.892;2022-09-09T19:11:40;9.68;;;6.40;;
52668;SDS011;59898;52.786;6.892;2022-09-09T19:15:01;7.35;;;5.70;;
52668;SDS011;59898;52.786;6.892;2022-09-09T19:18:22;11.13;;;6.50;;
52668;SDS011;59898;52.786;6.892;2022-09-09T19:21:43;7.55;;;6.50;;
52668;SDS011;59898;52.786;6.892;2022-09-09T19:25:04;7.72;;;5.03;;
52668;SDS011;59898;52.786;6.892;2022-09-09T19:28:26;6.00;;;4.80;;
52668;SDS011;59898;52.786;6.892;2022-09-09T19:31:47;6.20;;;5.38;;
52668;SDS011;59898;52.786;6.892;2022-09-09T19:35:08;6.88;;;4.20;;
52668;SDS011;59898;52.786;6.892;2022-09-09T19:38:30;7.15;;;4.80;;
52668;SDS011;59898;52.786;6.892;2022-09-09T19:41:51;8.82;;;4.32;;
52668;SDS011;59898;52.786;6.892;2022-09-09T19:45:12;9.40;;;4.85;;
52668;SDS011;59898;52.786;6.892;2022-09-09T19:48:33;8.45;;;4.75;;
52668;SDS011;59898;52.786;6.892;2022-09-09T19:51:56;8.70;;;4.90;;
52668;SDS011;59898;52.786;6.892;2022-09-09T19:55:17;8.45;;;5.28;;
52668;SDS011;59898;52.786;6.892;2022-09-09T19:58:38;6.65;;;5.18;;
52668;SDS011;59898;52.786;6.892;2022-09-09T20:02:00;9.60;;;5.68;;
52668;SDS011;59898;52.786;6.892;2022-09-09T20:05:21;7.15;;;4.70;;
52668;SDS011;59898;52.786;6.892;2022-09-09T20:08:43;8.50;;;4.20;;
52668;SDS011;59898;52.786;6.892;2022-09-09T20:12:06;6.90;;;5.47;;
52668;SDS011;59898;52.786;6.892;2022-09-09T20:15:27;7.07;;;4.88;;
52668;SDS011;59898;52.786;6.892;2022-09-09T20:18:49;8.05;;;4.85;;
52668;SDS011;59898;52.786;6.892;2022-09-09T20:22:11;8.32;;;5.05;;
52668;SDS011;59898;52.786;6.892;2022-09-09T20:25:34;5.82;;;4.88;;
52668;SDS011;59898;52.786;6.892;2022-09-09T20:28:56;4.97;;;4.22;;
52668;SDS011;59898;52.786;6.892;2022-09-09T20:32:17;7.43;;;4.82;;
52668;SDS011;59898;52.786;6.892;2022-09-09T20:35:37;10.48;;;5.28;;
52668;SDS011;59898;52.786;6.892;2022-09-09T20:38:59;6.25;;;4.20;;
52668;SDS011;59898;52.786;6.892;2022-09-09T20:42:27;7.13;;;4.97;;
52668;SDS011;59898;52.786;6.892;2022-09-09T20:45:48;6.32;;;5.03;;
52668;SDS011;59898;52.786;6.892;2022-09-09T20:49:09;8.15;;;5.28;;
52668;SDS011;59898;52.786;6.892;2022-09-09T20:52:30;9.18;;;5.43;;
52668;SDS011;59898;52.786;6.892;2022-09-09T20:55:51;6.93;;;5.82;;
52668;SDS011;59898;52.786;6.892;2022-09-09T20:59:21;8.20;;;5.70;;
52668;SDS011;59898;52.786;6.892;2022-09-09T21:02:43;7.95;;;5.57;;
52668;SDS011;59898;52.786;6.892;2022-09-09T21:06:05;10.63;;;6.30;;
52668;SDS011;59898;52.786;6.892;2022-09-09T21:09:26;9.50;;;6.05;;
52668;SDS011;59898;52.786;6.892;2022-09-09T21:12:47;6.50;;;5.47;;
52668;SDS011;59898;52.786;6.892;2022-09-09T21:16:09;11.00;;;6.55;;
52668;SDS011;59898;52.786;6.892;2022-09-09T21:19:32;10.10;;;6.32;;
52668;SDS011;59898;52.786;6.892;2022-09-09T21:22:54;14.20;;;6.60;;
52668;SDS011;59898;52.786;6.892;2022-09-09T21:26:15;9.88;;;6.53;;
52668;SDS011;59898;52.786;6.892;2022-09-09T21:29:39;8.70;;;6.55;;
52668;SDS011;59898;52.786;6.892;2022-09-09T21:33:00;11.40;;;6.47;;
52668;SDS011;59898;52.786;6.892;2022-09-09T21:36:21;9.05;;;6.88;;
52668;SDS011;59898;52.786;6.892;2022-09-09T21:39:42;8.70;;;6.38;;
52668;SDS011;59898;52.786;6.892;2022-09-09T21:43:06;9.85;;;6.65;;
52668;SDS011;59898;52.786;6.892;2022-09-09T21:46:30;10.25;;;7.03;;
52668;SDS011;59898;52.786;6.892;2022-09-09T21:49:51;9.95;;;6.75;;
52668;SDS011;59898;52.786;6.892;2022-09-09T21:53:12;10.82;;;7.30;;
52668;SDS011;59898;52.786;6.892;2022-09-09T21:56:34;8.68;;;7.32;;
52668;SDS011;59898;52.786;6.892;2022-09-09T21:59:55;11.48;;;7.97;;
52668;SDS011;59898;52.786;6.892;2022-09-09T22:03:16;11.15;;;7.97;;
52668;SDS011;59898;52.786;6.892;2022-09-09T22:06:38;9.07;;;6.88;;
52668;SDS011;59898;52.786;6.892;2022-09-09T22:09:59;9.93;;;7.65;;
52668;SDS011;59898;52.786;6.892;2022-09-09T22:13:20;10.48;;;7.28;;
52668;SDS011;59898;52.786;6.892;2022-09-09T22:16:41;8.95;;;7.78;;
52668;SDS011;59898;52.786;6.892;2022-09-09T22:20:01;9.25;;;8.07;;